Terminal Aerodrome Forecast
Issued by NWS Charleston, WV

Current Version | Previous Version | Graphics & Text | Print | Product List | Glossary On
Versions: 1 2 3 4 5 6 7 8 9 10 11 12 13 14 15 16 17 18 19 20 21 22 23
044
FTUS41 KRLX 170900 AAD
TAFPKB
TAF AMD
KPKB 170900Z 1709/1806 14005KT 2SM -SHRA BR OVC035
     FM171000 16005KT 3SM -SHRA BR OVC035
     FM171100 18006KT 3SM -SHRA OVC015
     FM171400 19009G15KT 5SM -SHRA BKN015
     FM172300 25008KT P6SM BKN015=

USA.gov is the U.S. government's official web portal to all federal, state and local government web resources and services.